sensor_id;sensor_type;location;lat;lon;timestamp;pressure;altitude;pressure_sealevel;temperature;humidity
71917;BME280;59793;46.506;6.674;2023-09-18T00:02:06;96650.19;;;20.36;75.02
71917;BME280;59793;46.506;6.674;2023-09-18T00:04:32;96677.75;;;20.52;74.29
71917;BME280;59793;46.506;6.674;2023-09-18T00:06:58;96677.88;;;20.45;74.61
71917;BME280;59793;46.506;6.674;2023-09-18T00:09:24;96682.16;;;20.43;73.94
71917;BME280;59793;46.506;6.674;2023-09-18T00:11:49;96675.78;;;20.37;73.00
71917;BME280;59793;46.506;6.674;2023-09-18T00:14:15;96701.34;;;20.58;72.89
71917;BME280;59793;46.506;6.674;2023-09-18T00:16:40;96627.97;;;20.19;73.35
71917;BME280;59793;46.506;6.674;2023-09-18T00:19:05;96659.72;;;20.37;74.02
71917;BME280;59793;46.506;6.674;2023-09-18T00:21:33;96672.06;;;20.50;73.85
71917;BME280;59793;46.506;6.674;2023-09-18T00:23:59;96661.00;;;20.48;73.58
71917;BME280;59793;46.506;6.674;2023-09-18T00:26:25;96670.16;;;20.51;74.00
71917;BME280;59793;46.506;6.674;2023-09-18T00:28:51;96696.88;;;20.71;73.79
71917;BME280;59793;46.506;6.674;2023-09-18T00:31:16;96690.28;;;20.75;74.04
71917;BME280;59793;46.506;6.674;2023-09-18T00:33:42;96687.47;;;20.63;74.25
71917;BME280;59793;46.506;6.674;2023-09-18T00:36:07;96714.75;;;20.74;74.33
71917;BME280;59793;46.506;6.674;2023-09-18T00:38:34;96665.00;;;20.40;74.05
71917;BME280;59793;46.506;6.674;2023-09-18T00:41:00;96724.69;;;20.57;74.77
71917;BME280;59793;46.506;6.674;2023-09-18T00:43:25;96677.03;;;20.12;74.59
71917;BME280;59793;46.506;6.674;2023-09-18T00:45:50;96769.75;;;20.79;74.78
71917;BME280;59793;46.506;6.674;2023-09-18T00:48:16;96778.63;;;20.75;75.18
71917;BME280;59793;46.506;6.674;2023-09-18T00:50:44;96746.88;;;20.58;75.70
71917;BME280;59793;46.506;6.674;2023-09-18T00:53:12;96723.25;;;20.52;75.40
71917;BME280;59793;46.506;6.674;2023-09-18T00:55:40;96751.56;;;20.70;76.04
71917;BME280;59793;46.506;6.674;2023-09-18T00:58:06;96743.66;;;20.83;75.75
71917;BME280;59793;46.506;6.674;2023-09-18T01:00:32;96726.38;;;21.04;75.50
71917;BME280;59793;46.506;6.674;2023-09-18T01:02:57;96751.50;;;21.26;74.86
71917;BME280;59793;46.506;6.674;2023-09-18T01:05:23;96746.47;;;21.28;75.17
71917;BME280;59793;46.506;6.674;2023-09-18T01:07:49;96758.63;;;21.33;75.33
71917;BME280;59793;46.506;6.674;2023-09-18T01:10:15;96752.00;;;21.21;75.90
71917;BME280;59793;46.506;6.674;2023-09-18T01:12:54;96780.25;;;21.06;78.28
71917;BME280;59793;46.506;6.674;2023-09-18T01:15:22;96699.59;;;20.11;79.35
71917;BME280;59793;46.506;6.674;2023-09-18T01:17:50;96701.38;;;20.18;79.56
71917;BME280;59793;46.506;6.674;2023-09-18T01:20:16;96741.41;;;20.41;78.95
71917;BME280;59793;46.506;6.674;2023-09-18T01:22:43;96725.25;;;20.09;79.80
71917;BME280;59793;46.506;6.674;2023-09-18T01:25:10;96826.75;;;20.79;79.99
71917;BME280;59793;46.506;6.674;2023-09-18T01:27:35;96820.97;;;20.81;79.93
71917;BME280;59793;46.506;6.674;2023-09-18T01:30:00;96757.34;;;20.48;79.53
71917;BME280;59793;46.506;6.674;2023-09-18T01:32:29;96814.41;;;21.01;79.31
71917;BME280;59793;46.506;6.674;2023-09-18T01:34:56;96789.16;;;21.03;78.90
71917;BME280;59793;46.506;6.674;2023-09-18T01:37:23;96797.56;;;21.21;79.29
71917;BME280;59793;46.506;6.674;2023-09-18T01:39:51;96755.47;;;21.01;79.17
71917;BME280;59793;46.506;6.674;2023-09-18T01:42:16;96788.69;;;21.24;80.04
71917;BME280;59793;46.506;6.674;2023-09-18T01:44:43;96771.06;;;21.23;79.83
71917;BME280;59793;46.506;6.674;2023-09-18T01:47:11;96774.34;;;21.31;79.50
71917;BME280;59793;46.506;6.674;2023-09-18T01:49:39;96760.03;;;21.21;80.23
71917;BME280;59793;46.506;6.674;2023-09-18T01:52:06;96759.03;;;21.31;79.70
71917;BME280;59793;46.506;6.674;2023-09-18T01:54:33;96756.53;;;21.24;80.14
71917;BME280;59793;46.506;6.674;2023-09-18T01:56:59;96734.72;;;20.89;80.89
71917;BME280;59793;46.506;6.674;2023-09-18T01:59:24;96760.16;;;20.97;81.27
71917;BME280;59793;46.506;6.674;2023-09-18T02:01:51;96766.94;;;21.02;81.44
71917;BME280;59793;46.506;6.674;2023-09-18T02:04:17;96754.25;;;21.06;80.94
71917;BME280;59793;46.506;6.674;2023-09-18T02:06:43;96757.16;;;20.95;82.11
71917;BME280;59793;46.506;6.674;2023-09-18T02:09:09;96750.22;;;20.62;83.21
71917;BME280;59793;46.506;6.674;2023-09-18T02:11:39;96759.50;;;20.57;83.46
71917;BME280;59793;46.506;6.674;2023-09-18T02:14:05;96767.00;;;20.42;83.62
71917;BME280;59793;46.506;6.674;2023-09-18T02:16:32;96784.09;;;20.28;84.67
71917;BME280;59793;46.506;6.674;2023-09-18T02:18:57;96779.41;;;20.13;85.10
71917;BME280;59793;46.506;6.674;2023-09-18T02:21:23;96765.03;;;19.83;86.17
71917;BME280;59793;46.506;6.674;2023-09-18T02:23:52;96763.06;;;19.87;86.53
71917;BME280;59793;46.506;6.674;2023-09-18T02:26:19;96789.84;;;20.07;86.46
71917;BME280;59793;46.506;6.674;2023-09-18T02:28:44;96773.31;;;20.12;85.70
71917;BME280;59793;46.506;6.674;2023-09-18T02:31:10;96761.88;;;20.12;84.45
71917;BME280;59793;46.506;6.674;2023-09-18T02:33:36;96768.38;;;20.30;84.12
71917;BME280;59793;46.506;6.674;2023-09-18T02:36:02;96740.78;;;20.14;84.07
71917;BME280;59793;46.506;6.674;2023-09-18T02:38:28;96746.38;;;20.43;83.42
71917;BME280;59793;46.506;6.674;2023-09-18T02:40:53;96741.28;;;20.48;82.76
71917;BME280;59793;46.506;6.674;2023-09-18T02:43:19;96700.94;;;20.39;81.10
71917;BME280;59793;46.506;6.674;2023-09-18T02:45:44;96736.19;;;20.74;79.70
71917;BME280;59793;46.506;6.674;2023-09-18T02:48:11;96733.97;;;20.89;78.58
71917;BME280;59793;46.506;6.674;2023-09-18T02:50:37;96723.25;;;20.89;78.90
71917;BME280;59793;46.506;6.674;2023-09-18T02:53:02;96713.19;;;20.76;79.69
71917;BME280;59793;46.506;6.674;2023-09-18T02:55:28;96728.53;;;20.92;79.66
71917;BME280;59793;46.506;6.674;2023-09-18T02:57:53;96715.94;;;20.73;79.24
71917;BME280;59793;46.506;6.674;2023-09-18T03:00:19;96654.84;;;20.32;79.92
71917;BME280;59793;46.506;6.674;2023-09-18T03:02:44;96704.78;;;20.58;80.22
71917;BME280;59793;46.506;6.674;2023-09-18T03:05:09;96705.22;;;20.57;80.07
71917;BME280;59793;46.506;6.674;2023-09-18T03:07:35;96707.53;;;20.55;80.02
71917;BME280;59793;46.506;6.674;2023-09-18T03:10:00;96716.44;;;20.68;79.67
71917;BME280;59793;46.506;6.674;2023-09-18T03:12:25;96700.22;;;20.75;78.97
71917;BME280;59793;46.506;6.674;2023-09-18T03:14:51;96640.09;;;20.43;78.12
71917;BME280;59793;46.506;6.674;2023-09-18T03:17:16;96668.34;;;20.81;77.55
71917;BME280;59793;46.506;6.674;2023-09-18T03:19:41;96730.56;;;21.21;76.90
71917;BME280;59793;46.506;6.674;2023-09-18T03:22:07;96674.47;;;20.97;77.30
71917;BME280;59793;46.506;6.674;2023-09-18T03:24:32;96709.50;;;21.39;77.25
71917;BME280;59793;46.506;6.674;2023-09-18T03:26:57;96696.22;;;21.32;77.17
71917;BME280;59793;46.506;6.674;2023-09-18T03:29:23;96688.59;;;21.31;76.80
71917;BME280;59793;46.506;6.674;2023-09-18T03:31:48;96704.88;;;21.40;76.42
71917;BME280;59793;46.506;6.674;2023-09-18T03:34:13;96687.53;;;21.28;77.09
71917;BME280;59793;46.506;6.674;2023-09-18T03:36:38;96683.66;;;21.13;77.61
71917;BME280;59793;46.506;6.674;2023-09-18T03:39:04;96667.78;;;20.89;77.81
71917;BME280;59793;46.506;6.674;2023-09-18T03:41:30;96689.13;;;20.93;77.64
71917;BME280;59793;46.506;6.674;2023-09-18T03:44:02;96700.56;;;20.93;77.53
71917;BME280;59793;46.506;6.674;2023-09-18T03:46:27;96689.94;;;20.90;77.40
71917;BME280;59793;46.506;6.674;2023-09-18T03:48:53;96692.91;;;20.95;77.36
71917;BME280;59793;46.506;6.674;2023-09-18T03:51:18;96648.59;;;20.74;77.31
71917;BME280;59793;46.506;6.674;2023-09-18T03:53:44;96696.22;;;21.16;77.22
71917;BME280;59793;46.506;6.674;2023-09-18T03:56:10;96700.34;;;21.20;77.35
71917;BME280;59793;46.506;6.674;2023-09-18T03:58:35;96717.41;;;21.27;77.25
71917;BME280;59793;46.506;6.674;2023-09-18T04:01:01;96734.78;;;21.38;78.10
71917;BME280;59793;46.506;6.674;2023-09-18T04:03:27;96710.13;;;21.11;79.49
71917;BME280;59793;46.506;6.674;2023-09-18T04:05:52;96725.34;;;20.97;81.10
71917;BME280;59793;46.506;6.674;2023-09-18T04:08:18;96677.13;;;20.45;83.56
71917;BME280;59793;46.506;6.674;2023-09-18T04:10:43;96714.47;;;20.52;84.55
71917;BME280;59793;46.506;6.674;2023-09-18T04:13:10;96705.34;;;20.10;86.51
71917;BME280;59793;46.506;6.674;2023-09-18T04:15:37;96716.59;;;20.21;86.90
71917;BME280;59793;46.506;6.674;2023-09-18T04:18:05;96707.88;;;19.97;88.73
71917;BME280;59793;46.506;6.674;2023-09-18T04:20:31;96708.78;;;19.90;89.95
71917;BME280;59793;46.506;6.674;2023-09-18T04:23:19;96744.69;;;19.89;91.79
71917;BME280;59793;46.506;6.674;2023-09-18T04:25:45;96761.09;;;19.68;93.32
71917;BME280;59793;46.506;6.674;2023-09-18T04:28:11;96775.72;;;19.59;93.34
71917;BME280;59793;46.506;6.674;2023-09-18T04:30:37;96771.44;;;19.66;93.40
71917;BME280;59793;46.506;6.674;2023-09-18T04:33:03;96758.63;;;19.53;92.87
71917;BME280;59793;46.506;6.674;2023-09-18T04:35:28;96768.84;;;19.58;92.95
71917;BME280;59793;46.506;6.674;2023-09-18T04:37:55;96770.94;;;19.47;92.97
71917;BME280;59793;46.506;6.674;2023-09-18T04:40:21;96746.06;;;19.27;93.21
71917;BME280;59793;46.506;6.674;2023-09-18T04:42:49;96744.44;;;19.33;93.13
71917;BME280;59793;46.506;6.674;2023-09-18T04:45:14;96766.50;;;19.64;93.52
71917;BME280;59793;46.506;6.674;2023-09-18T04:47:41;96780.34;;;19.83;93.08
71917;BME280;59793;46.506;6.674;2023-09-18T04:50:07;96778.28;;;19.90;91.45
71917;BME280;59793;46.506;6.674;2023-09-18T04:52:33;96780.72;;;19.81;86.72
71917;BME280;59793;46.506;6.674;2023-09-18T04:54:59;96738.34;;;19.56;83.96
71917;BME280;59793;46.506;6.674;2023-09-18T04:57:24;96773.00;;;19.63;83.07
71917;BME280;59793;46.506;6.674;2023-09-18T04:59:50;96763.84;;;19.61;85.30
71917;BME280;59793;46.506;6.674;2023-09-18T05:02:15;96759.91;;;19.45;85.15
71917;BME280;59793;46.506;6.674;2023-09-18T05:04:41;96765.94;;;19.49;83.81
71917;BME280;59793;46.506;6.674;2023-09-18T05:07:08;96780.47;;;19.75;83.68
71917;BME280;59793;46.506;6.674;2023-09-18T05:09:33;96756.16;;;19.39;84.18
71917;BME280;59793;46.506;6.674;2023-09-18T05:12:00;96790.97;;;19.63;83.67
71917;BME280;59793;46.506;6.674;2023-09-18T05:14:25;96805.03;;;19.90;83.16
71917;BME280;59793;46.506;6.674;2023-09-18T05:16:50;96783.06;;;19.79;83.28
71917;BME280;59793;46.506;6.674;2023-09-18T05:19:16;96763.47;;;19.62;82.89
71917;BME280;59793;46.506;6.674;2023-09-18T05:21:41;96742.22;;;19.28;82.82
71917;BME280;59793;46.506;6.674;2023-09-18T05:24:07;96742.84;;;19.12;83.30
71917;BME280;59793;46.506;6.674;2023-09-18T05:26:32;96733.84;;;19.02;84.55
71917;BME280;59793;46.506;6.674;2023-09-18T05:28:58;96721.19;;;18.79;83.25
71917;BME280;59793;46.506;6.674;2023-09-18T05:31:24;96748.34;;;19.01;84.41
71917;BME280;59793;46.506;6.674;2023-09-18T05:33:49;96769.72;;;19.01;86.15
71917;BME280;59793;46.506;6.674;2023-09-18T05:36:15;96754.78;;;18.77;87.10
71917;BME280;59793;46.506;6.674;2023-09-18T05:38:41;96787.53;;;18.81;86.71
71917;BME280;59793;46.506;6.674;2023-09-18T05:41:06;96786.44;;;18.75;86.77
71917;BME280;59793;46.506;6.674;2023-09-18T05:43:32;96813.84;;;18.79;85.05
71917;BME280;59793;46.506;6.674;2023-09-18T05:46:03;96855.72;;;18.85;84.45
71917;BME280;59793;46.506;6.674;2023-09-18T05:48:28;96891.53;;;18.88;84.77
71917;BME280;59793;46.506;6.674;2023-09-18T05:50:54;96913.91;;;19.01;83.73
71917;BME280;59793;46.506;6.674;2023-09-18T05:53:20;96907.97;;;18.83;83.01
71917;BME280;59793;46.506;6.674;2023-09-18T05:55:47;96918.53;;;18.94;82.82
71917;BME280;59793;46.506;6.674;2023-09-18T05:58:12;96915.47;;;18.95;82.51
71917;BME280;59793;46.506;6.674;2023-09-18T06:00:37;96912.94;;;18.84;83.43
71917;BME280;59793;46.506;6.674;2023-09-18T06:03:04;96864.66;;;18.68;84.71
71917;BME280;59793;46.506;6.674;2023-09-18T06:05:31;96872.81;;;18.54;84.91
71917;BME280;59793;46.506;6.674;2023-09-18T06:07:56;96923.19;;;18.48;86.82
71917;BME280;59793;46.506;6.674;2023-09-18T06:10:22;96881.91;;;18.19;87.76
71917;BME280;59793;46.506;6.674;2023-09-18T06:12:47;96905.34;;;18.42;87.51
71917;BME280;59793;46.506;6.674;2023-09-18T06:15:17;96934.34;;;18.36;88.20
71917;BME280;59793;46.506;6.674;2023-09-18T06:17:44;96930.16;;;18.35;89.07
71917;BME280;59793;46.506;6.674;2023-09-18T06:20:11;96893.41;;;18.08;88.47
71917;BME280;59793;46.506;6.674;2023-09-18T06:22:41;96936.34;;;18.25;89.41
71917;BME280;59793;46.506;6.674;2023-09-18T06:25:08;96918.13;;;18.12;91.08
71917;BME280;59793;46.506;6.674;2023-09-18T06:27:35;96873.41;;;17.86;91.59
71917;BME280;59793;46.506;6.674;2023-09-18T06:30:02;96904.13;;;18.01;92.52
71917;BME280;59793;46.506;6.674;2023-09-18T06:32:29;96911.09;;;17.88;93.70
71917;BME280;59793;46.506;6.674;2023-09-18T06:34:55;96899.22;;;18.00;92.93
71917;BME280;59793;46.506;6.674;2023-09-18T06:37:22;96883.47;;;18.12;91.97
71917;BME280;59793;46.506;6.674;2023-09-18T06:39:48;96882.28;;;18.21;90.87
71917;BME280;59793;46.506;6.674;2023-09-18T06:42:13;96883.31;;;18.34;89.27
71917;BME280;59793;46.506;6.674;2023-09-18T06:44:39;96871.38;;;18.46;89.57
71917;BME280;59793;46.506;6.674;2023-09-18T06:47:04;96895.50;;;18.73;88.51
71917;BME280;59793;46.506;6.674;2023-09-18T06:49:29;96890.56;;;18.71;88.23
71917;BME280;59793;46.506;6.674;2023-09-18T06:51:56;96901.84;;;18.86;88.09
71917;BME280;59793;46.506;6.674;2023-09-18T06:54:21;96814.06;;;18.20;87.91
71917;BME280;59793;46.506;6.674;2023-09-18T06:56:46;96920.19;;;18.84;87.52
71917;BME280;59793;46.506;6.674;2023-09-18T06:59:12;96947.88;;;18.97;87.15
71917;BME280;59793;46.506;6.674;2023-09-18T07:01:38;96933.16;;;18.82;87.62
71917;BME280;59793;46.506;6.674;2023-09-18T07:04:03;96855.00;;;18.44;87.57
71917;BME280;59793;46.506;6.674;2023-09-18T07:06:29;96928.34;;;19.04;87.19
71917;BME280;59793;46.506;6.674;2023-09-18T07:08:55;96885.13;;;18.82;87.63
71917;BME280;59793;46.506;6.674;2023-09-18T07:11:20;96843.81;;;18.56;87.17
71917;BME280;59793;46.506;6.674;2023-09-18T07:13:46;96913.25;;;18.90;86.79
71917;BME280;59793;46.506;6.674;2023-09-18T07:16:11;96978.97;;;19.15;86.57
71917;BME280;59793;46.506;6.674;2023-09-18T07:18:37;96997.31;;;19.13;86.85
71917;BME280;59793;46.506;6.674;2023-09-18T07:21:03;96905.44;;;18.69;86.11
71917;BME280;59793;46.506;6.674;2023-09-18T07:23:28;96945.22;;;18.94;86.59
71917;BME280;59793;46.506;6.674;2023-09-18T07:25:53;96963.47;;;19.02;86.48
71917;BME280;59793;46.506;6.674;2023-09-18T07:28:19;96918.03;;;18.68;85.77
71917;BME280;59793;46.506;6.674;2023-09-18T07:30:47;96889.97;;;18.53;85.42
71917;BME280;59793;46.506;6.674;2023-09-18T07:33:13;96970.69;;;19.05;85.89
71917;BME280;59793;46.506;6.674;2023-09-18T07:35:41;96927.59;;;18.62;86.56
71917;BME280;59793;46.506;6.674;2023-09-18T07:38:07;96897.63;;;18.47;86.09
71917;BME280;59793;46.506;6.674;2023-09-18T07:40:33;97014.50;;;19.08;86.84
71917;BME280;59793;46.506;6.674;2023-09-18T07:42:59;96997.28;;;18.75;87.43
71917;BME280;59793;46.506;6.674;2023-09-18T07:45:25;97011.16;;;19.00;86.95
71917;BME280;59793;46.506;6.674;2023-09-18T07:47:50;97018.44;;;18.96;86.61
71917;BME280;59793;46.506;6.674;2023-09-18T07:50:15;97037.41;;;19.09;85.79
71917;BME280;59793;46.506;6.674;2023-09-18T07:52:43;96986.81;;;18.95;85.64
71917;BME280;59793;46.506;6.674;2023-09-18T07:55:08;96986.84;;;19.25;85.14
71917;BME280;59793;46.506;6.674;2023-09-18T07:57:34;97003.53;;;19.02;86.50
71917;BME280;59793;46.506;6.674;2023-09-18T08:00:01;97059.38;;;18.82;87.66
71917;BME280;59793;46.506;6.674;2023-09-18T08:02:41;97054.00;;;18.86;88.05
71917;BME280;59793;46.506;6.674;2023-09-18T08:05:07;97063.81;;;19.00;87.27
71917;BME280;59793;46.506;6.674;2023-09-18T08:07:34;97056.66;;;18.90;85.85
71917;BME280;59793;46.506;6.674;2023-09-18T08:10:02;97065.03;;;18.92;86.13
71917;BME280;59793;46.506;6.674;2023-09-18T08:12:31;97070.00;;;18.90;86.64
71917;BME280;59793;46.506;6.674;2023-09-18T08:14:57;97045.97;;;18.90;86.71
71917;BME280;59793;46.506;6.674;2023-09-18T08:17:24;97057.31;;;19.01;87.32
71917;BME280;59793;46.506;6.674;2023-09-18T08:19:53;97044.50;;;18.85;88.00
71917;BME280;59793;46.506;6.674;2023-09-18T08:22:19;97057.34;;;18.97;87.81
71917;BME280;59793;46.506;6.674;2023-09-18T08:24:46;97053.63;;;18.88;88.47
71917;BME280;59793;46.506;6.674;2023-09-18T08:27:14;97038.38;;;18.88;88.33
71917;BME280;59793;46.506;6.674;2023-09-18T08:29:45;97057.28;;;19.04;88.08
71917;BME280;59793;46.506;6.674;2023-09-18T08:32:10;97047.84;;;18.93;88.03
71917;BME280;59793;46.506;6.674;2023-09-18T08:34:36;97033.41;;;18.86;87.63
71917;BME280;59793;46.506;6.674;2023-09-18T08:37:04;97039.44;;;18.98;87.57
71917;BME280;59793;46.506;6.674;2023-09-18T08:39:29;97074.31;;;19.18;88.38
71917;BME280;59793;46.506;6.674;2023-09-18T08:42:03;97059.88;;;19.11;87.82
71917;BME280;59793;46.506;6.674;2023-09-18T08:44:29;97079.97;;;19.27;87.66
71917;BME280;59793;46.506;6.674;2023-09-18T08:46:55;97087.59;;;19.25;87.49
71917;BME280;59793;46.506;6.674;2023-09-18T08:49:23;97085.31;;;19.27;87.82
71917;BME280;59793;46.506;6.674;2023-09-18T08:51:51;97056.53;;;19.00;88.02
71917;BME280;59793;46.506;6.674;2023-09-18T08:54:16;97092.66;;;19.16;87.19
71917;BME280;59793;46.506;6.674;2023-09-18T08:56:42;97092.34;;;19.06;88.02
71917;BME280;59793;46.506;6.674;2023-09-18T08:59:07;97096.22;;;19.02;88.80
71917;BME280;59793;46.506;6.674;2023-09-18T09:01:33;97092.31;;;19.10;88.33
71917;BME280;59793;46.506;6.674;2023-09-18T09:03:58;97088.47;;;19.15;88.31
71917;BME280;59793;46.506;6.674;2023-09-18T09:06:25;97084.03;;;18.97;88.58
71917;BME280;59793;46.506;6.674;2023-09-18T09:08:51;97039.31;;;18.63;89.18
71917;BME280;59793;46.506;6.674;2023-09-18T09:11:18;97017.69;;;18.47;89.14
71917;BME280;59793;46.506;6.674;2023-09-18T09:13:45;97045.81;;;18.62;89.74
71917;BME280;59793;46.506;6.674;2023-09-18T09:16:12;97043.69;;;18.88;89.68
71917;BME280;59793;46.506;6.674;2023-09-18T09:18:47;97012.91;;;18.80;89.60
71917;BME280;59793;46.506;6.674;2023-09-18T09:21:13;97001.09;;;18.77;88.57
71917;BME280;59793;46.506;6.674;2023-09-18T09:23:52;97008.75;;;18.72;88.03
71917;BME280;59793;46.506;6.674;2023-09-18T09:26:22;96921.50;;;18.24;88.01
71917;BME280;59793;46.506;6.674;2023-09-18T09:28:47;96921.06;;;18.29;86.50
71917;BME280;59793;46.506;6.674;2023-09-18T09:31:27;96906.28;;;18.21;86.00
71917;BME280;59793;46.506;6.674;2023-09-18T09:33:54;96924.41;;;18.36;85.92
71917;BME280;59793;46.506;6.674;2023-09-18T09:36:21;96918.22;;;18.47;84.83
71917;BME280;59793;46.506;6.674;2023-09-18T09:38:46;96947.03;;;18.66;85.85
71917;BME280;59793;46.506;6.674;2023-09-18T09:41:15;96963.88;;;18.59;85.30
71917;BME280;59793;46.506;6.674;2023-09-18T09:43:46;96957.50;;;18.46;85.77
71917;BME280;59793;46.506;6.674;2023-09-18T09:46:17;96968.84;;;18.54;87.53
71917;BME280;59793;46.506;6.674;2023-09-18T09:49:03;96987.91;;;18.56;92.44
71917;BME280;59793;46.506;6.674;2023-09-18T09:51:37;97001.22;;;18.59;91.91
71917;BME280;59793;46.506;6.674;2023-09-18T09:54:04;96957.56;;;18.39;94.01
71917;BME280;59793;46.506;6.674;2023-09-18T09:56:43;96956.34;;;18.47;95.10
71917;BME280;59793;46.506;6.674;2023-09-18T09:59:10;96965.75;;;18.62;95.71
71917;BME280;59793;46.506;6.674;2023-09-18T10:01:37;96950.22;;;18.50;93.30
71917;BME280;59793;46.506;6.674;2023-09-18T10:04:08;96941.59;;;18.32;91.71
71917;BME280;59793;46.506;6.674;2023-09-18T10:06:36;97003.59;;;18.47;89.86
71917;BME280;59793;46.506;6.674;2023-09-18T10:09:03;96977.00;;;18.36;88.14
71917;BME280;59793;46.506;6.674;2023-09-18T10:11:33;96986.84;;;18.46;88.09
71917;BME280;59793;46.506;6.674;2023-09-18T10:14:39;96978.34;;;18.58;88.08
71917;BME280;59793;46.506;6.674;2023-09-18T10:17:15;96983.06;;;18.40;85.75
71917;BME280;59793;46.506;6.674;2023-09-18T10:22:45;97005.09;;;18.48;85.60
71917;BME280;59793;46.506;6.674;2023-09-18T10:25:31;97003.22;;;18.48;87.54
71917;BME280;59793;46.506;6.674;2023-09-18T10:27:58;97013.09;;;18.51;86.96
71917;BME280;59793;46.506;6.674;2023-09-18T10:30:27;96995.34;;;18.27;86.66
71917;BME280;59793;46.506;6.674;2023-09-18T10:32:52;97016.53;;;18.52;85.41
71917;BME280;59793;46.506;6.674;2023-09-18T10:35:19;97004.22;;;18.65;85.90
71917;BME280;59793;46.506;6.674;2023-09-18T10:37:47;97004.22;;;18.65;85.13
71917;BME280;59793;46.506;6.674;2023-09-18T10:40:13;96987.09;;;18.62;85.58
71917;BME280;59793;46.506;6.674;2023-09-18T10:42:40;96978.06;;;18.49;83.88
71917;BME280;59793;46.506;6.674;2023-09-18T10:45:10;97007.97;;;18.75;81.78
71917;BME280;59793;46.506;6.674;2023-09-18T10:47:38;96934.50;;;18.14;83.68
71917;BME280;59793;46.506;6.674;2023-09-18T10:50:05;97051.69;;;18.92;84.44
71917;BME280;59793;46.506;6.674;2023-09-18T10:52:33;97070.34;;;18.95;83.83
71917;BME280;59793;46.506;6.674;2023-09-18T11:02:41;97147.97;;;18.59;85.68
71917;BME280;59793;46.506;6.674;2023-09-18T11:05:09;97035.22;;;17.89;85.98
71917;BME280;59793;46.506;6.674;2023-09-18T11:10:26;96985.25;;;18.00;86.03
71917;BME280;59793;46.506;6.674;2023-09-18T11:13:05;97094.13;;;18.75;86.31
71917;BME280;59793;46.506;6.674;2023-09-18T11:15:32;96986.00;;;18.04;87.01
71917;BME280;59793;46.506;6.674;2023-09-18T11:38:54;97001.72;;;18.44;89.96
71917;BME280;59793;46.506;6.674;2023-09-18T11:41:24;96972.09;;;18.31;90.15
71917;BME280;59793;46.506;6.674;2023-09-18T11:43:50;96949.66;;;18.25;89.87
71917;BME280;59793;46.506;6.674;2023-09-18T11:46:20;96963.19;;;18.48;89.59
71917;BME280;59793;46.506;6.674;2023-09-18T11:48:49;96953.38;;;18.38;88.80
71917;BME280;59793;46.506;6.674;2023-09-18T11:51:22;96959.31;;;18.56;88.30
71917;BME280;59793;46.506;6.674;2023-09-18T11:53:49;96961.25;;;18.52;88.05
71917;BME280;59793;46.506;6.674;2023-09-18T11:56:17;96989.44;;;18.53;88.47
71917;BME280;59793;46.506;6.674;2023-09-18T11:58:48;96988.41;;;18.40;86.06
71917;BME280;59793;46.506;6.674;2023-09-18T12:01:13;97019.19;;;18.55;84.76
71917;BME280;59793;46.506;6.674;2023-09-18T12:03:45;97002.41;;;18.51;84.62
71917;BME280;59793;46.506;6.674;2023-09-18T12:06:12;96980.13;;;18.27;83.52
71917;BME280;59793;46.506;6.674;2023-09-18T12:08:41;96985.44;;;18.31;84.25
71917;BME280;59793;46.506;6.674;2023-09-18T12:11:07;97018.84;;;18.46;84.78
71917;BME280;59793;46.506;6.674;2023-09-18T12:13:32;97028.06;;;18.38;85.51
71917;BME280;59793;46.506;6.674;2023-09-18T12:16:04;97012.59;;;18.15;86.27
71917;BME280;59793;46.506;6.674;2023-09-18T12:18:34;97001.47;;;18.27;85.96
71917;BME280;59793;46.506;6.674;2023-09-18T12:21:02;97006.44;;;18.22;86.97
71917;BME280;59793;46.506;6.674;2023-09-18T12:23:36;97023.19;;;18.26;89.16
71917;BME280;59793;46.506;6.674;2023-09-18T12:26:02;96991.53;;;18.31;89.72
71917;BME280;59793;46.506;6.674;2023-09-18T12:28:28;96971.69;;;18.32;91.42
71917;BME280;59793;46.506;6.674;2023-09-18T12:30:55;96937.72;;;17.95;92.21
71917;BME280;59793;46.506;6.674;2023-09-18T12:33:23;97010.59;;;18.26;91.00
71917;BME280;59793;46.506;6.674;2023-09-18T12:35:50;96994.25;;;18.24;90.31
71917;BME280;59793;46.506;6.674;2023-09-18T12:38:18;96868.66;;;17.52;89.56
71917;BME280;59793;46.506;6.674;2023-09-18T12:40:51;96966.13;;;18.12;89.51
71917;BME280;59793;46.506;6.674;2023-09-18T12:43:17;96977.13;;;18.22;89.18
71917;BME280;59793;46.506;6.674;2023-09-18T12:45:44;97001.84;;;18.26;88.06
71917;BME280;59793;46.506;6.674;2023-09-18T12:48:11;96967.97;;;18.19;86.73
71917;BME280;59793;46.506;6.674;2023-09-18T12:50:37;97001.34;;;18.45;85.88
71917;BME280;59793;46.506;6.674;2023-09-18T12:53:09;97002.78;;;18.53;84.54
71917;BME280;59793;46.506;6.674;2023-09-18T12:55:35;96986.88;;;18.43;83.69
71917;BME280;59793;46.506;6.674;2023-09-18T12:58:01;97001.63;;;18.54;83.69
71917;BME280;59793;46.506;6.674;2023-09-18T13:00:32;96973.97;;;18.37;83.34
71917;BME280;59793;46.506;6.674;2023-09-18T13:02:58;96988.63;;;18.60;82.10
71917;BME280;59793;46.506;6.674;2023-09-18T13:05:24;97005.84;;;18.55;83.17
71917;BME280;59793;46.506;6.674;2023-09-18T13:08:08;96988.66;;;18.56;82.81
71917;BME280;59793;46.506;6.674;2023-09-18T13:10:47;96976.25;;;18.35;83.95
71917;BME280;59793;46.506;6.674;2023-09-18T13:13:24;96963.31;;;18.34;85.23
71917;BME280;59793;46.506;6.674;2023-09-18T13:15:51;96995.22;;;18.48;83.52
71917;BME280;59793;46.506;6.674;2023-09-18T13:18:16;97002.03;;;18.53;84.52
71917;BME280;59793;46.506;6.674;2023-09-18T13:20:43;96994.09;;;18.46;82.46
71917;BME280;59793;46.506;6.674;2023-09-18T13:23:09;96972.41;;;18.40;82.45
71917;BME280;59793;46.506;6.674;2023-09-18T13:25:36;96996.25;;;18.58;81.70
71917;BME280;59793;46.506;6.674;2023-09-18T13:28:07;96944.63;;;18.37;80.87
71917;BME280;59793;46.506;6.674;2023-09-18T13:30:35;96900.44;;;18.33;79.36
71917;BME280;59793;46.506;6.674;2023-09-18T13:33:08;96967.56;;;18.73;79.54
71917;BME280;59793;46.506;6.674;2023-09-18T13:35:35;96999.19;;;18.78;80.10